Latest Weather Observations for Palmerville

IDQ60801

Issued at 9:32 am EST Tuesday 17 October 2017 (issued every 30 minutes, with the page automatically refreshed every 10 minutes)

About weather observations | Map of weather stations | Latest weather observations for QLD | Other Formats
Station Details ID: 028004 Name: PALMERVILLE Lat: -16.00 Lon: 144.08 Height: 203.8 m
Data from the previous 72 hours. | See also: Recent months at Palmerville
Date/Time
EST
Temp
°C
App
Temp
°C
Dew
Point
°C
Rel
Hum
%
Delta-T
°C
Wind Press
QNH
hPa
Press
MSL
hPa
Rain since
9am
mm
Dir  Spd
km/h
Gust
km/h
Spd
kts
Gust
kts
17/09:30am 22.2 23.6 18.6 80 2.3 SW 9 13 5 7 1013.2 1011.9 0.2
17/09:00am 22.4 23.5 18.8 80 2.3 SSW 11 15 6 8 1012.8 1011.6 11.4
17/08:30am 22.6 24.6 18.8 79 2.4 SSW 6 11 3 6 1012.6 1011.3 11.4
17/08:00am 22.3 24.5 19.5 84 1.8 S 7 9 4 5 1012.3 1011.0 11.4
17/07:30am 21.7 23.9 19.6 88 1.3 S 7 11 4 6 1011.7 1010.4 11.4
17/07:00am 21.3 23.3 19.9 92 0.9 S 9 11 5 6 1011.2 1009.9 11.4
17/06:30am 21.4 23.6 19.7 90 1.1 SSW 7 11 4 6 1011.0 1009.7 11.4
17/06:00am 21.0 25.1 20.8 99 0.1 CALM 0 0 0 0 1010.5 1009.2 11.4
17/05:30am 20.9 23.6 20.2 96 0.5 SE 6 9 3 5 1009.8 1008.5 11.4
17/05:00am 20.8 23.2 19.6 93 0.8 E 6 7 3 4 1009.3 1008.0 11.4
17/04:30am 20.9 23.3 19.6 92 0.8 E 6 9 3 5 1009.1 1007.8 11.4
17/04:00am 20.9 23.8 19.9 94 0.6 ESE 4 7 2 4 1009.1 1007.8 11.4
17/03:30am 20.9 24.4 19.6 92 0.8 CALM 0 0 0 0 1008.9 1007.6 11.4
17/03:00am 21.2 24.7 19.5 90 1.1 CALM 0 0 0 0 1009.0 1007.7 11.4
17/02:30am 21.5 23.5 19.2 87 1.5 SE 7 13 4 7 1008.8 1007.5 11.4
17/02:00am 20.9 24.4 19.6 92 0.8 CALM 0 0 0 0 1009.2 1007.9 11.4
17/01:30am 21.1 23.3 19.2 89 1.2 E 6 11 3 6 1009.6 1008.3 11.4
17/01:00am 20.9 24.7 20.1 95 0.5 CALM 0 0 0 0 1010.5 1009.2 11.4
17/12:30am 21.1 24.3 19.7 92 0.9 SSW 2 7 1 4 1010.7 1009.4 11.4
17/12:00am 21.2 23.8 20.0 93 0.8 ESE 6 13 3 7 1011.1 1009.8 11.4
 
Date/Time
EST
Temp
°C
App
Temp
°C
Dew
Point
°C
Rel
Hum
%
Delta-T
°C
Wind Press
QNH
hPa
Press
MSL
hPa
Rain since
9am
mm
Dir  Spd
km/h
Gust
km/h
Spd
kts
Gust
kts
16/11:30pm 21.2 23.9 20.2 94 0.6 ENE 6 9 3 5 1010.4 1009.1 11.4
16/11:00pm 21.2 24.0 20.5 96 0.5 NNE 6 9 3 5 1010.2 1008.9 11.4
16/10:30pm 21.0 23.7 20.3 96 0.5 S 6 7 3 4 1010.2 1008.9 11.4
16/10:00pm 21.0 23.6 20.0 94 0.6 SSW 6 11 3 6 1010.1 1008.8 11.2
16/09:30pm 20.6 22.4 20.4 99 0.1 NE 11 15 6 8 1010.4 1009.1 10.0
16/09:00pm 20.5 21.3 19.0 91 1.0 SE 13 19 7 10 1011.4 1010.1 9.0
16/08:30pm 22.5 24.0 18.9 80 2.3 ESE 9 15 5 8 1011.4 1010.1 3.0
16/08:00pm 22.9 23.6 19.7 82 2.1 SSE 15 24 8 13 1010.4 1009.1 2.6
16/07:30pm 22.6 24.9 19.8 84 1.8 E 7 11 4 6 1009.3 1008.0 2.6
16/07:00pm 22.3 24.2 19.7 85 1.7 ENE 9 15 5 8 1009.2 1007.9 2.6
16/06:30pm 22.2 22.5 19.6 85 1.7 ENE 17 26 9 14 1008.6 1007.3 2.6
16/06:00pm 21.7 21.7 19.8 89 1.2 E 19 32 10 17 1007.6 1006.3 2.6
16/05:30pm 22.2 24.4 20.3 89 1.2 ESE 9 15 5 8 1008.5 1007.2 2.4
16/05:00pm 21.6 23.5 19.0 85 1.7 SW 7 13 4 7 1007.6 1006.3 2.4
16/04:30pm 23.2 23.9 18.9 77 2.7 NNW 13 22 7 12 1007.2 1005.9 2.0
16/04:00pm 24.7 26.7 20.0 75 3.1 NNE 9 17 5 9 1006.4 1005.1 1.6
16/03:30pm 24.8 26.5 20.9 79 2.6 N 13 17 7 9 1006.6 1005.3 1.6
16/03:00pm 24.5 26.6 20.2 77 2.8 ENE 9 13 5 7 1006.8 1005.5 1.6
16/02:30pm 25.0 25.0 17.2 62 4.9 N 13 35 7 19 1007.3 1006.0 1.4
16/02:00pm 30.0 31.6 17.8 48 7.9 NNW 6 13 3 7 1007.4 1006.1 0.2
16/01:30pm 29.9 30.8 18.3 49 7.5 NNW 11 15 6 8 1008.0 1006.6 0.2
16/01:00pm 30.5 31.9 18.6 49 7.8 WNW 9 13 5 7 1008.4 1007.1 0.2
16/12:30pm 31.1 32.2 18.1 46 8.4 NNE 9 15 5 8 1008.8 1007.5 0.2
16/12:00pm 30.3 30.9 17.7 46 8.1 NNW 11 20 6 11 1009.0 1007.7 0.2
16/11:30am 30.1 31.2 17.9 48 7.9 N 9 15 5 8 1009.6 1008.3 0.2
16/11:00am 29.9 31.4 18.0 48 7.7 N 7 19 4 10 1010.0 1008.7 0.2
16/10:30am 28.5 29.5 17.7 52 6.9 N 9 19 5 10 1010.5 1009.2 0.2
16/10:00am 28.3 29.7 18.7 56 6.2 NE 9 17 5 9 1010.6 1009.3 0.2
16/09:30am 26.4 28.7 18.5 62 5.1 WNW 4 9 2 5 1010.9 1009.6 0.2
16/09:00am 25.5 27.1 19.9 71 3.7 E 11 17 6 9 1010.8 1009.5 33.2
16/08:30am 25.0 26.8 19.6 72 3.5 ENE 9 13 5 7 1011.1 1009.8 33.2
16/08:00am 24.1 26.2 19.4 75 3.0 ENE 7 11 4 6 1011.1 1009.8 33.2
16/07:30am 23.4 26.1 19.5 79 2.5 ESE 4 7 2 4 1010.8 1009.5 33.2
16/07:00am 22.6 25.0 20.1 86 1.6 S 7 11 4 6 1010.8 1009.5 33.2
16/06:30am 21.6 24.7 19.5 88 1.3 SE 2 6 1 3 1010.1 1008.8 33.2
16/06:00am 21.1 23.7 19.2 89 1.2 S 4 7 2 4 1009.7 1008.4 33.2
16/05:30am 21.5 23.0 18.9 85 1.7 ENE 9 13 5 7 1009.4 1008.1 33.2
16/05:00am 21.3 22.8 19.0 87 1.5 ENE 9 13 5 7 1008.9 1007.6 33.2
16/04:30am 21.5 23.6 18.9 85 1.7 E 6 11 3 6 1008.3 1006.9 33.2
16/04:00am 21.7 23.4 18.5 82 2.0 NNE 7 13 4 7 1008.2 1006.8 33.2
16/03:30am 22.4 22.2 18.6 79 2.4 NNE 17 26 9 14 1007.9 1006.5 33.2
16/03:00am 21.6 22.7 18.8 84 1.8 NNE 11 17 6 9 1007.9 1006.5 33.2
16/02:30am 21.4 23.2 19.5 89 1.2 ENE 9 17 5 9 1008.4 1007.1 33.2
16/02:00am 21.1 23.2 20.1 94 0.6 ENE 9 15 5 8 1008.6 1007.3 33.2
16/01:30am 20.7 22.1 20.4 98 0.2 ENE 13 20 7 11 1008.9 1007.6 33.2
16/01:00am 20.9 21.2 19.7 93 0.8 ENE 17 28 9 15 1009.3 1008.0 33.2
16/12:30am 20.2 21.5 20.2 100 0.0 NE 13 19 7 10 1010.2 1008.9 33.2
16/12:00am 20.3 22.5 20.3 100 0.0 E 9 17 5 9 1010.9 1009.6 32.8
 
Date/Time
EST
Temp
°C
App
Temp
°C
Dew
Point
°C
Rel
Hum
%
Delta-T
°C
Wind Press
QNH
hPa
Press
MSL
hPa
Rain since
9am
mm
Dir  Spd
km/h
Gust
km/h
Spd
kts
Gust
kts
15/11:30pm 20.6 22.1 20.6 100 0.0 SE 13 17 7 9 1011.2 1009.9 30.2
15/11:00pm 20.9 23.0 20.2 96 0.5 SW 9 15 5 8 1011.3 1010.0 14.2
15/10:30pm 21.5 24.1 20.1 92 0.9 SW 6 15 3 8 1011.3 1010.0 8.2
15/10:00pm 23.0 27.0 22.0 94 0.7 WNW 4 9 2 5 1011.2 1009.9 5.6
15/09:30pm 23.0 25.4 20.9 88 1.4 SW 9 19 5 10 1010.1 1008.8 3.4
15/09:00pm 24.6 25.3 19.7 74 3.2 NE 15 20 8 11 1008.7 1007.4 2.8
15/08:30pm 26.4 28.0 20.0 68 4.2 ENE 11 19 6 10 1008.3 1006.9 2.8
15/08:00pm 26.5 29.0 19.9 67 4.3 E 6 13 3 7 1007.6 1006.3 2.8
15/07:30pm 26.5 28.2 20.1 68 4.2 E 11 20 6 11 1007.2 1005.9 2.8
15/07:00pm 27.4 28.5 19.7 63 5.1 ENE 13 26 7 14 1006.6 1005.3 2.4
15/06:30pm 28.9 28.9 18.9 54 6.5 E 17 26 9 14 1005.9 1004.6 2.4
15/06:00pm 30.1 31.7 19.2 52 7.2 NNW 9 15 5 8 1005.3 1004.0 2.4
15/05:30pm 30.4 32.4 19.1 50 7.4 ENE 7 11 4 6 1005.0 1003.7 2.4
15/05:00pm 30.5 31.9 18.6 49 7.8 NE 9 13 5 7 1004.5 1003.2 2.4
15/04:30pm 30.5 32.3 19.5 51 7.2 ENE 9 15 5 8 1004.5 1003.2 2.4
15/04:00pm 30.0 31.5 19.7 54 6.8 ENE 11 15 6 8 1004.7 1003.4 2.4
15/03:30pm 29.8 32.6 22.3 64 5.1 NE 11 15 6 8 1005.1 1003.8 2.4
15/03:00pm 26.8 28.8 21.6 73 3.5 SE 13 17 7 9 1005.4 1004.1 2.4
15/02:56pm 26.5 28.3 20.3 68 4.1 SE 11 17 6 9 1005.6 1004.3 2.2
15/02:30pm 31.6 32.4 18.2 44 8.7 SW 11 17 6 9 1005.6 1004.3 0.0
15/02:00pm 33.9 34.9 16.3 35 11.2 N 6 13 3 7 1006.0 1004.7 0.0
15/01:30pm 34.1 34.6 16.5 35 11.2 ENE 9 15 5 8 1006.7 1005.4 0.0
15/01:00pm 33.0 33.8 16.4 37 10.6 N 7 15 4 8 1007.2 1005.9 0.0
15/12:30pm 32.8 33.9 16.6 38 10.3 N 6 11 3 6 1007.9 1006.5 0.0
15/12:00pm 32.8 33.6 17.4 39 9.9 NNE 9 13 5 7 1008.5 1007.2 0.0
15/11:30am 31.7 32.5 17.2 42 9.3 NNW 9 15 5 8 1009.2 1007.9 0.0
15/11:00am 32.0 32.9 17.5 42 9.3 WNW 9 15 5 8 1009.7 1008.4 0.0
15/10:30am 31.1 32.3 17.4 44 8.8 NNW 7 13 4 7 1010.0 1008.7 0.0
15/10:00am 30.3 30.8 17.4 46 8.3 NNE 11 17 6 9 1010.4 1009.1 0.0
15/09:30am 29.1 30.4 17.6 50 7.3 SW 7 11 4 6 1010.9 1009.6 0.0
15/09:00am 28.1 30.1 17.9 54 6.5 W 4 11 2 6 1011.2 1009.9 0.0
15/08:30am 27.3 28.9 18.3 58 5.8 SSW 7 13 4 7 1011.3 1010.0 0.0
15/08:00am 26.0 27.6 17.9 61 5.1 E 6 11 3 6 1010.9 1009.6 0.0
15/07:30am 25.5 27.1 18.2 64 4.6 NE 7 11 4 6 1010.4 1009.1 0.0
15/07:00am 23.7 26.3 18.4 72 3.4 E 2 7 1 4 1010.0 1008.7 0.0
15/06:30am 21.7 24.4 17.7 78 2.5 CALM 0 0 0 0 1009.9 1008.6 0.0
15/06:00am 21.6 24.2 17.6 78 2.5 CALM 0 2 0 1 1009.7 1008.4 0.0
15/05:30am 22.5 24.1 17.8 75 2.9 SSE 6 7 3 4 1009.3 1008.0 0.0
15/05:00am 22.9 23.9 17.8 73 3.2 NNE 9 17 5 9 1008.7 1007.4 0.0
15/04:30am 22.8 23.9 18.1 75 3.0 NNE 9 13 5 7 1008.4 1007.1 0.0
15/04:00am 22.6 24.0 17.7 74 3.1 N 7 13 4 7 1008.6 1007.3 0.0
15/03:30am 22.8 24.2 17.7 73 3.2 N 7 11 4 6 1008.6 1007.3 0.0
15/03:00am 22.9 24.3 17.8 73 3.2 N 7 11 4 6 1008.5 1007.2 0.0
15/02:30am 23.1 24.6 17.6 71 3.4 N 6 9 3 5 1008.8 1007.5 0.0
15/02:00am 23.5 24.9 17.7 70 3.6 N 7 11 4 6 1008.8 1007.5 0.0
15/01:30am 24.0 25.7 18.0 69 3.8 N 6 9 3 5 1009.1 1007.8 0.0
15/01:00am 24.1 24.4 17.8 68 4.0 NE 13 20 7 11 1008.8 1007.5 0.0
15/12:30am 24.3 24.6 17.8 67 4.1 NE 13 20 7 11 1009.0 1007.7 0.0
15/12:00am 24.5 25.1 17.7 66 4.3 NE 11 19 6 10 1009.2 1007.9 0.0
 
Date/Time
EST
Temp
°C
App
Temp
°C
Dew
Point
°C
Rel
Hum
%
Delta-T
°C
Wind Press
QNH
hPa
Press
MSL
hPa
Rain since
9am
mm
Dir  Spd
km/h
Gust
km/h
Spd
kts
Gust
kts
14/11:30pm 25.0 25.5 17.5 63 4.7 NE 11 17 6 9 1009.3 1008.0 0.0
14/11:00pm 25.3 25.8 17.5 62 4.9 NNE 11 15 6 8 1009.4 1008.1 0.0
14/10:30pm 25.9 26.0 17.5 59 5.3 NE 13 19 7 10 1009.3 1008.0 0.0
14/10:00pm 26.4 27.0 17.7 58 5.5 NE 11 20 6 11 1009.2 1007.9 0.0
14/09:30pm 26.9 27.6 17.9 57 5.7 NNE 11 15 6 8 1008.8 1007.5 0.0
14/09:00pm 27.5 27.8 17.9 55 6.1 NNE 13 19 7 10 1008.4 1007.1 0.0
14/08:30pm 28.2 28.8 17.7 53 6.7 NNE 11 17 6 9 1008.2 1006.8 0.0
14/08:00pm 28.8 28.6 17.7 51 7.1 NNE 15 24 8 13 1007.7 1006.4 0.0
14/07:30pm 29.7 28.7 17.5 48 7.8 NNE 19 30 10 16 1007.4 1006.1 0.0
14/07:00pm 30.7 29.5 17.0 43 8.7 NNE 19 26 10 14 1007.0 1005.7 0.0
14/06:30pm 33.2 32.1 15.2 33 11.3 NNE 15 22 8 12 1006.3 1005.0 0.0
14/06:00pm 34.2 34.2 15.1 31 12.0 N 9 15 5 8 1006.0 1004.7 0.0
14/05:30pm 34.9 33.6 14.7 29 12.6 NNE 15 20 8 11 1005.7 1004.4 0.0
14/05:00pm 35.5 35.5 15.3 30 12.8 NE 9 17 5 9 1005.5 1004.2 0.0
14/04:30pm 35.8 34.7 14.4 27 13.3 N 13 20 7 11 1005.5 1004.2 0.0
14/04:00pm 36.5 36.8 15.0 27 13.6 NE 7 17 4 9 1005.5 1004.2 0.0
14/03:30pm 37.2 37.5 15.1 27 14.0 E 7 13 4 7 1005.7 1004.4 0.0
14/03:00pm 35.3 35.3 15.1 30 12.7 NW 9 13 5 7 1005.9 1004.6 0.0
14/02:30pm 36.2 36.0 14.8 28 13.4 SSE 9 15 5 8 1006.3 1005.0 0.0
14/02:00pm 36.2 36.0 14.8 28 13.5 ENE 9 17 5 9 1006.8 1005.5 0.0
14/01:30pm 35.7 35.6 14.9 29 13.1 WSW 9 15 5 8 1007.3 1006.0 0.0
14/01:00pm 35.4 34.6 15.2 30 12.7 SE 13 20 7 11 1008.2 1006.8 0.0
14/12:30pm 33.7 33.9 14.7 32 11.8 SSE 7 15 4 8 1009.0 1007.7 0.0
14/12:00pm 34.1 34.3 14.6 31 12.1 E 7 15 4 8 1009.7 1008.4 0.0
14/11:30am 33.2 32.8 15.2 33 11.3 SE 11 19 6 10 1010.5 1009.2 0.0
14/11:00am 32.2 32.5 16.1 38 10.2 NE 9 17 5 9 1010.9 1009.6 0.0
14/10:30am 31.9 31.9 16.2 38 9.9 ESE 11 20 6 11 1011.6 1010.3 0.0
14/10:00am 30.2 30.1 15.9 42 8.9 ESE 11 17 6 9 1011.9 1010.6 0.0

Other Formats:

Comma delimited format used in spreadsheet applications
http://www.bom.gov.au/fwo/IDQ60801/IDQ60801.94276.axf

JavaScript Object Notation format (JSON) in row-major order
http://www.bom.gov.au/fwo/IDQ60801/IDQ60801.94276.json